createdAt,value
2018-11-11T00:01:14.412Z,2.35
2018-11-11T00:03:43.181Z,3.27
2018-11-11T00:06:13.144Z,3.12
2018-11-11T00:08:57.875Z,2.33
2018-11-11T00:11:26.687Z,2.52
2018-11-11T00:13:55.458Z,2.12
2018-11-11T00:16:24.200Z,3.22
2018-11-11T00:18:52.896Z,1.95
2018-11-11T00:21:23.422Z,2.58
2018-11-11T00:23:52.408Z,2.60
2018-11-11T00:26:21.192Z,3.30
2018-11-11T00:28:50.025Z,2.75
2018-11-11T00:31:18.658Z,2.00
2018-11-11T00:33:47.455Z,1.90
2018-11-11T00:36:16.181Z,2.45
2018-11-11T00:38:44.937Z,2.33
2018-11-11T00:41:13.656Z,1.50
2018-11-11T00:43:42.811Z,2.20
2018-11-11T00:46:11.535Z,2.42
2018-11-11T00:48:40.259Z,2.30
2018-11-11T00:51:08.972Z,2.45
2018-11-11T00:53:37.743Z,2.95
2018-11-11T00:56:06.485Z,2.90
2018-11-11T00:58:35.234Z,2.10
2018-11-11T01:01:04.560Z,2.30
2018-11-11T01:03:33.327Z,2.22
2018-11-11T01:06:02.725Z,2.05
2018-11-11T01:08:31.447Z,2.00
2018-11-11T01:11:00.247Z,2.02
2018-11-11T01:13:28.961Z,2.22
2018-11-11T01:15:57.822Z,3.22
2018-11-11T01:18:26.546Z,2.52
2018-11-11T01:20:55.401Z,1.90
2018-11-11T01:23:24.161Z,3.40
2018-11-11T01:25:52.916Z,2.25
2018-11-11T01:28:22.429Z,3.20
2018-11-11T01:30:57.820Z,1.30
2018-11-11T01:33:26.546Z,3.27
2018-11-11T01:35:55.499Z,2.42
2018-11-11T01:38:24.331Z,1.90
2018-11-11T01:40:53.090Z,2.50
2018-11-11T01:43:21.871Z,2.77
2018-11-11T01:45:50.697Z,2.08
2018-11-11T01:48:19.414Z,3.17
2018-11-11T01:50:48.126Z,1.90
2018-11-11T01:53:16.950Z,1.95
2018-11-11T01:55:45.684Z,2.00
2018-11-11T01:58:14.456Z,1.47
2018-11-11T02:00:43.215Z,2.55
2018-11-11T02:03:12.046Z,2.08
2018-11-11T02:05:40.851Z,2.20
2018-11-11T02:08:09.579Z,2.45
2018-11-11T02:10:38.281Z,1.60
2018-11-11T02:13:07.873Z,2.25
2018-11-11T02:15:36.628Z,1.98
2018-11-11T02:18:05.884Z,2.55
2018-11-11T02:20:34.684Z,1.65
2018-11-11T02:23:03.431Z,1.90
2018-11-11T02:25:32.688Z,1.65
2018-11-11T02:28:01.397Z,2.45
2018-11-11T02:30:30.208Z,2.05
2018-11-11T02:32:59.011Z,1.47
2018-11-11T02:35:27.899Z,1.50
2018-11-11T02:37:56.669Z,1.72
2018-11-11T02:40:25.588Z,1.95
2018-11-11T02:42:54.348Z,1.80
2018-11-11T02:45:23.075Z,2.95
2018-11-11T02:47:51.807Z,2.00
2018-11-11T02:50:20.613Z,2.37
2018-11-11T02:52:49.408Z,2.02
2018-11-11T02:55:18.405Z,2.40
2018-11-11T02:57:47.600Z,2.10
2018-11-11T03:00:19.636Z,2.12
2018-11-11T03:02:48.616Z,1.87
2018-11-11T03:05:18.189Z,1.80
2018-11-11T03:07:46.924Z,2.22
2018-11-11T03:10:16.395Z,1.65
2018-11-11T03:12:45.907Z,1.20
2018-11-11T03:15:15.176Z,2.10
2018-11-11T03:17:44.853Z,1.60
2018-11-11T03:20:14.200Z,2.02
2018-11-11T03:22:42.968Z,1.90
2018-11-11T03:25:13.243Z,2.47
2018-11-11T03:27:42.916Z,1.62
2018-11-11T03:30:14.935Z,1.98
2018-11-11T03:32:43.672Z,2.17
2018-11-11T03:35:13.326Z,2.20
2018-11-11T03:37:42.720Z,1.90
2018-11-11T03:40:13.924Z,1.70
2018-11-11T03:42:43.015Z,1.80
2018-11-11T03:45:13.228Z,3.27
2018-11-11T03:47:42.941Z,2.87
2018-11-11T03:50:11.928Z,1.52
2018-11-11T03:52:40.922Z,2.45
2018-11-11T03:55:09.820Z,2.00
2018-11-11T03:57:39.243Z,1.42
2018-11-11T04:00:09.509Z,1.98
2018-11-11T04:02:38.338Z,2.00
2018-11-11T04:05:07.926Z,1.30
2018-11-11T04:07:36.693Z,1.55
2018-11-11T04:10:07.452Z,1.25
2018-11-11T04:12:36.180Z,1.47
2018-11-11T04:15:06.012Z,1.70
2018-11-11T04:17:34.959Z,2.37
2018-11-11T04:20:03.728Z,1.25
2018-11-11T04:22:32.499Z,2.33
2018-11-11T04:25:02.449Z,2.55
2018-11-11T04:27:31.181Z,1.80
2018-11-11T04:30:00.067Z,1.60
2018-11-11T04:32:28.855Z,2.77
2018-11-11T04:34:57.642Z,2.35
2018-11-11T04:37:26.379Z,3.72
2018-11-11T04:39:55.129Z,3.58
2018-11-11T04:42:23.806Z,4.15
2018-11-11T04:44:52.713Z,3.60
2018-11-11T04:47:21.522Z,4.33
2018-11-11T04:49:51.138Z,3.65
2018-11-11T04:52:19.805Z,2.75
2018-11-11T04:54:48.867Z,2.95
2018-11-11T04:57:17.800Z,2.90
2018-11-11T04:59:46.488Z,2.52
2018-11-11T05:02:15.191Z,3.67
2018-11-11T05:04:43.994Z,2.67
2018-11-11T05:07:12.640Z,2.40
2018-11-11T05:09:41.385Z,4.30
2018-11-11T05:12:10.195Z,3.77
2018-11-11T05:14:38.964Z,3.37
2018-11-11T05:17:07.716Z,2.65
2018-11-11T05:19:36.471Z,2.95
2018-11-11T05:22:06.074Z,4.40
2018-11-11T05:24:34.849Z,4.60
2018-11-11T05:27:03.551Z,2.90
2018-11-11T05:29:32.311Z,2.35
2018-11-11T05:32:01.017Z,2.65
2018-11-11T05:34:29.717Z,3.83
2018-11-11T05:36:58.415Z,2.90
2018-11-11T05:39:27.173Z,3.55
2018-11-11T05:41:55.948Z,4.33
2018-11-11T05:44:24.761Z,2.95
2018-11-11T05:46:53.535Z,3.83
2018-11-11T05:49:22.296Z,3.30
2018-11-11T05:51:52.012Z,1.95
2018-11-11T05:54:20.811Z,2.08
2018-11-11T05:56:49.511Z,3.95
2018-11-11T05:59:18.216Z,2.17
2018-11-11T06:01:48.653Z,4.20
2018-11-11T06:04:17.480Z,3.10
2018-11-11T06:06:46.267Z,2.80
2018-11-11T06:09:14.937Z,3.30
2018-11-11T06:11:43.741Z,5.00
2018-11-11T06:14:12.530Z,3.17
2018-11-11T06:16:42.301Z,2.80
2018-11-11T06:19:12.461Z,3.52
2018-11-11T06:21:41.120Z,3.98
2018-11-11T06:24:09.931Z,2.40
2018-11-11T06:26:39.538Z,2.42
2018-11-11T06:29:08.553Z,2.92
2018-11-11T06:31:37.359Z,3.25
2018-11-11T06:34:06.180Z,2.62
2018-11-11T06:36:34.841Z,3.02
2018-11-11T06:39:04.537Z,3.05
2018-11-11T06:41:33.246Z,3.30
2018-11-11T06:44:02.007Z,3.22
2018-11-11T06:46:30.719Z,2.25
2018-11-11T06:48:59.465Z,2.27
2018-11-11T06:51:28.201Z,2.25
2018-11-11T06:53:56.944Z,2.98
2018-11-11T06:56:25.782Z,2.55
2018-11-11T06:58:54.573Z,2.85
2018-11-11T07:01:23.313Z,2.25
2018-11-11T07:03:55.041Z,2.80
2018-11-11T07:06:24.391Z,2.72
2018-11-11T07:08:53.143Z,2.80
2018-11-11T07:11:21.913Z,2.35
2018-11-11T07:13:50.759Z,3.02
2018-11-11T07:16:19.385Z,2.72
2018-11-11T07:18:48.312Z,3.58
2018-11-11T07:21:17.827Z,2.08
2018-11-11T07:23:46.884Z,3.42
2018-11-11T07:26:15.611Z,2.75
2018-11-11T07:28:44.394Z,3.25
2018-11-11T07:31:13.192Z,2.08
2018-11-11T07:33:42.003Z,3.70
2018-11-11T07:36:11.403Z,3.37
2018-11-11T07:38:40.313Z,2.77
2018-11-11T07:41:09.344Z,2.80
2018-11-11T07:43:38.557Z,2.45
2018-11-11T07:46:07.500Z,2.02
2018-11-11T07:48:36.169Z,2.37
2018-11-11T07:51:05.086Z,2.20
2018-11-11T07:53:33.907Z,2.75
2018-11-11T07:56:02.789Z,2.35
2018-11-11T07:58:31.508Z,1.90
2018-11-11T08:01:00.228Z,2.50
2018-11-11T08:03:29.195Z,2.87
2018-11-11T08:05:57.941Z,2.27
2018-11-11T08:08:26.789Z,3.72
2018-11-11T08:11:07.188Z,2.77
2018-11-11T08:13:36.042Z,2.20
2018-11-11T08:16:05.251Z,2.80
2018-11-11T08:18:33.993Z,1.98
2018-11-11T08:21:09.516Z,2.85
2018-11-11T08:23:38.267Z,3.12
2018-11-11T08:26:07.054Z,3.42
2018-11-11T08:28:35.858Z,2.77
2018-11-11T08:31:06.229Z,1.82
2018-11-11T08:33:35.256Z,2.35
2018-11-11T08:36:04.039Z,1.50
2018-11-11T08:38:34.164Z,1.70
2018-11-11T08:41:03.050Z,2.30
2018-11-11T08:43:31.781Z,1.72
2018-11-11T08:46:00.812Z,1.70
2018-11-11T08:48:29.793Z,2.15
2018-11-11T08:50:58.966Z,1.42
2018-11-11T08:53:28.028Z,2.00
2018-11-11T08:55:57.857Z,2.17
2018-11-11T08:58:26.593Z,2.42
2018-11-11T09:00:55.301Z,1.85
2018-11-11T09:03:24.084Z,1.32
2018-11-11T09:05:52.825Z,2.17
2018-11-11T09:08:22.130Z,3.75
2018-11-11T09:10:51.423Z,1.82
2018-11-11T09:13:20.367Z,1.37
2018-11-11T09:15:49.454Z,2.52
2018-11-11T09:18:18.761Z,2.30
2018-11-11T09:20:47.452Z,2.15
2018-11-11T09:23:16.259Z,2.10
2018-11-11T09:25:45.017Z,1.32
2018-11-11T09:28:13.699Z,1.98
2018-11-11T09:30:42.490Z,1.50
2018-11-11T09:33:11.275Z,2.83
2018-11-11T09:35:40.066Z,1.20
2018-11-11T09:38:08.749Z,1.72
2018-11-11T09:40:37.536Z,1.60
2018-11-11T09:43:06.673Z,1.67
2018-11-11T09:45:35.418Z,1.52
2018-11-11T09:48:04.312Z,1.52
2018-11-11T09:50:32.996Z,2.50
2018-11-11T09:53:01.779Z,2.17
2018-11-11T09:55:30.520Z,2.00
2018-11-11T09:58:00.002Z,2.12
2018-11-11T10:00:28.830Z,1.87
2018-11-11T10:03:04.799Z,2.27
2018-11-11T10:05:37.286Z,1.80
2018-11-11T10:10:13.522Z,2.10
2018-11-11T10:13:46.163Z,2.35
2018-11-11T10:16:25.893Z,1.75
2018-11-11T10:18:59.912Z,2.25
2018-11-11T10:21:39.219Z,2.42
2018-11-11T10:24:15.433Z,2.17
2018-11-11T10:26:50.638Z,1.85
2018-11-11T10:29:43.956Z,1.90
2018-11-11T10:32:28.474Z,2.05
2018-11-11T10:35:06.107Z,1.30
2018-11-11T10:37:43.308Z,1.72
2018-11-11T10:40:20.995Z,1.92
2018-11-11T10:42:55.199Z,1.70
2018-11-11T10:45:28.802Z,1.62
2018-11-11T10:48:08.799Z,1.57
2018-11-11T10:50:43.015Z,2.12
2018-11-11T10:53:11.709Z,1.72
2018-11-11T10:55:40.452Z,2.08
2018-11-11T10:58:09.174Z,1.42
2018-11-11T11:00:43.490Z,1.77
2018-11-11T11:03:17.643Z,2.45
2018-11-11T11:05:46.545Z,1.70
2018-11-11T11:08:15.274Z,1.40
2018-11-11T11:10:44.083Z,2.10
2018-11-11T11:13:12.855Z,2.95
2018-11-11T11:15:41.556Z,2.00
2018-11-11T11:18:10.407Z,1.95
2018-11-11T11:20:40.221Z,2.60
2018-11-11T11:23:10.704Z,2.00
2018-11-11T11:25:39.845Z,2.35
2018-11-11T11:28:08.573Z,1.40
2018-11-11T11:30:37.333Z,1.95
2018-11-11T11:33:06.219Z,1.30
2018-11-11T11:35:34.985Z,1.35
2018-11-11T11:38:03.742Z,1.10
2018-11-11T11:40:32.456Z,1.62
2018-11-11T11:43:01.191Z,1.87
2018-11-11T11:45:29.909Z,2.92
2018-11-11T11:47:58.737Z,1.70
2018-11-11T11:50:27.442Z,1.98
2018-11-11T11:52:56.228Z,1.60
2018-11-11T11:55:24.920Z,2.15
2018-11-11T11:58:05.384Z,1.40
2018-11-11T12:00:34.055Z,2.30
2018-11-11T12:03:02.725Z,1.77
2018-11-11T12:05:31.405Z,2.05
2018-11-11T12:08:00.116Z,1.92
2018-11-11T12:10:28.833Z,1.50
2018-11-11T12:12:57.537Z,1.70
2018-11-11T12:15:26.229Z,1.30
2018-11-11T12:17:54.954Z,1.67
2018-11-11T12:20:23.673Z,2.33
2018-11-11T12:22:52.357Z,2.90
2018-11-11T12:25:21.107Z,2.05
2018-11-11T12:27:49.833Z,1.55
2018-11-11T12:30:18.661Z,1.27
2018-11-11T12:32:47.361Z,1.15
2018-11-11T12:35:19.153Z,1.70
2018-11-11T12:37:47.961Z,1.50
2018-11-11T12:40:16.878Z,1.60
2018-11-11T12:42:45.444Z,1.70
2018-11-11T12:45:14.489Z,1.67
2018-11-11T12:47:43.287Z,1.45
2018-11-11T12:50:12.874Z,1.40
2018-11-11T12:52:41.631Z,2.45
2018-11-11T12:55:10.371Z,1.40
2018-11-11T12:57:39.064Z,1.52
2018-11-11T13:00:09.520Z,1.77
2018-11-11T13:02:38.327Z,2.37
2018-11-11T13:05:07.754Z,1.72
2018-11-11T13:07:36.466Z,2.47
2018-11-11T13:10:07.678Z,1.70
2018-11-11T13:12:36.386Z,1.82
2018-11-11T13:15:07.573Z,1.98
2018-11-11T13:17:36.699Z,2.30
2018-11-11T13:20:07.543Z,1.20
2018-11-11T13:22:36.304Z,2.45
2018-11-11T13:25:05.679Z,1.35
2018-11-11T13:27:38.653Z,1.92
2018-11-11T13:30:08.944Z,1.42
2018-11-11T13:32:37.859Z,2.05
2018-11-11T13:35:07.691Z,1.27
2018-11-11T13:37:36.397Z,1.75
2018-11-11T13:40:09.444Z,1.80
2018-11-11T13:42:39.081Z,1.47
2018-11-11T13:45:17.503Z,2.17
2018-11-11T13:47:46.950Z,1.47
2018-11-11T13:50:20.814Z,1.15
2018-11-11T13:52:49.679Z,1.35
2018-11-11T13:55:18.985Z,1.85
2018-11-11T13:57:48.139Z,2.77
2018-11-11T14:00:20.858Z,1.50
2018-11-11T14:02:49.667Z,1.80
2018-11-11T14:05:18.321Z,1.40
2018-11-11T14:07:47.056Z,1.60
2018-11-11T14:10:16.093Z,1.55
2018-11-11T14:12:44.794Z,1.67
2018-11-11T14:15:22.193Z,1.52
2018-11-11T14:17:51.144Z,1.67
2018-11-11T14:20:20.998Z,1.25
2018-11-11T14:22:51.393Z,2.27
2018-11-11T14:25:26.694Z,1.42
2018-11-11T14:27:55.315Z,1.65
2018-11-11T14:30:26.134Z,1.20
2018-11-11T14:32:55.687Z,1.92
2018-11-11T14:35:24.398Z,1.10
2018-11-11T14:37:53.245Z,1.70
2018-11-11T14:40:23.540Z,1.40
2018-11-11T14:42:52.242Z,1.70
2018-11-11T14:45:22.442Z,1.62
2018-11-11T14:47:53.288Z,2.25
2018-11-11T14:50:22.636Z,1.27
2018-11-11T14:52:51.428Z,1.62
2018-11-11T14:55:21.991Z,1.45
2018-11-11T14:57:50.702Z,1.47
2018-11-11T15:00:21.494Z,1.55
2018-11-11T15:03:17.834Z,2.35
2018-11-11T15:05:46.531Z,1.35
2018-11-11T15:08:15.221Z,1.15
2018-11-11T15:10:43.957Z,2.00
2018-11-11T15:13:13.644Z,1.45
2018-11-11T15:15:42.266Z,1.72
2018-11-11T15:18:10.971Z,1.75
2018-11-11T15:20:40.078Z,1.30
2018-11-11T15:23:09.135Z,1.02
2018-11-11T15:25:37.864Z,1.82
2018-11-11T15:28:06.965Z,1.50
2018-11-11T15:30:36.536Z,1.40
2018-11-11T15:33:05.726Z,2.15
2018-11-11T15:35:34.439Z,1.20
2018-11-11T15:38:03.848Z,1.67
2018-11-11T15:40:34.799Z,1.25
2018-11-11T15:43:03.507Z,1.80
2018-11-11T15:45:33.435Z,1.40
2018-11-11T15:48:02.348Z,2.20
2018-11-11T15:50:32.054Z,1.40
2018-11-11T15:53:02.123Z,1.37
2018-11-11T15:55:31.984Z,1.50
2018-11-11T15:58:00.709Z,1.37
2018-11-11T16:00:32.797Z,1.60
2018-11-11T16:03:01.524Z,1.52
2018-11-11T16:05:30.291Z,1.15
2018-11-11T16:07:59.683Z,1.95
2018-11-11T16:10:29.735Z,1.55
2018-11-11T16:12:58.433Z,1.07
2018-11-11T16:15:28.649Z,1.72
2018-11-11T16:18:06.284Z,1.10
2018-11-11T16:20:35.042Z,2.85
2018-11-11T16:23:04.864Z,1.52
2018-11-11T16:25:33.840Z,1.20
2018-11-11T16:28:03.247Z,1.80
2018-11-11T16:30:33.254Z,1.05
2018-11-11T16:33:02.288Z,1.72
2018-11-11T16:35:31.473Z,1.42
2018-11-11T16:38:00.654Z,1.30
2018-11-11T16:40:33.788Z,1.80
2018-11-11T16:43:02.701Z,1.70
2018-11-11T16:45:32.501Z,1.50
2018-11-11T16:48:01.842Z,1.55
2018-11-11T16:50:32.710Z,1.50
2018-11-11T16:53:03.845Z,1.35
2018-11-11T16:55:33.432Z,0.95
2018-11-11T16:58:02.157Z,2.02
2018-11-11T17:00:32.364Z,1.65
2018-11-11T17:03:01.986Z,2.80
2018-11-11T17:05:32.045Z,1.67
2018-11-11T17:08:00.804Z,1.40
2018-11-11T17:10:30.944Z,1.37
2018-11-11T17:13:01.192Z,1.27
2018-11-11T17:15:30.932Z,1.65
2018-11-11T17:17:59.844Z,2.00
2018-11-11T17:20:28.844Z,2.72
2018-11-11T17:23:01.200Z,2.37
2018-11-11T17:25:29.877Z,5.03
2018-11-11T17:27:58.687Z,5.25
2018-11-11T17:30:28.518Z,8.00
2018-11-11T17:32:58.577Z,8.20
2018-11-11T17:35:27.238Z,7.37
2018-11-11T17:37:55.959Z,6.45
2018-11-11T17:40:26.317Z,6.55
2018-11-11T17:42:56.127Z,10.55
2018-11-11T17:45:24.888Z,8.03
2018-11-11T17:47:54.344Z,8.03
2018-11-11T17:50:24.375Z,7.15
2018-11-11T17:52:53.290Z,5.40
2018-11-11T17:55:23.345Z,7.75
2018-11-11T17:57:52.049Z,6.33
2018-11-11T18:00:22.068Z,6.80
2018-11-11T18:02:51.020Z,8.20
2018-11-11T18:05:21.284Z,7.75
2018-11-11T18:07:49.984Z,6.45
2018-11-11T18:10:19.899Z,6.67
2018-11-11T18:12:48.599Z,4.53
2018-11-11T18:15:18.765Z,5.00
2018-11-11T18:17:47.591Z,6.00
2018-11-11T18:20:21.662Z,4.92
2018-11-11T18:22:51.699Z,4.58
2018-11-11T18:25:20.506Z,5.65
2018-11-11T18:27:49.329Z,5.65
2018-11-11T18:30:21.685Z,5.12
2018-11-11T18:32:50.486Z,4.53
2018-11-11T18:35:19.673Z,4.53
2018-11-11T18:37:48.438Z,4.92
2018-11-11T18:40:18.485Z,5.50
2018-11-11T18:42:47.255Z,4.22
2018-11-11T18:45:19.428Z,3.80
2018-11-11T18:47:48.900Z,4.92
2018-11-11T18:50:19.452Z,4.20
2018-11-11T18:52:48.156Z,4.83
2018-11-11T18:55:16.842Z,3.45
2018-11-11T18:57:45.861Z,5.20
2018-11-11T19:00:16.991Z,4.42
2018-11-11T19:02:46.869Z,7.42
2018-11-11T19:05:16.655Z,4.17
2018-11-11T19:07:45.899Z,5.50
2018-11-11T19:10:16.272Z,5.75
2018-11-11T19:12:45.888Z,4.78
2018-11-11T19:15:15.824Z,3.90
2018-11-11T19:17:45.252Z,4.55
2018-11-11T19:20:16.177Z,4.87
2018-11-11T19:22:44.941Z,3.55
2018-11-11T19:25:15.291Z,3.72
2018-11-11T19:27:45.069Z,3.37
2018-11-11T19:30:14.689Z,6.20
2018-11-11T19:32:44.017Z,3.15
2018-11-11T19:35:14.052Z,4.08
2018-11-11T19:37:43.550Z,3.12
2018-11-11T19:40:16.189Z,3.92
2018-11-11T19:42:45.216Z,6.53
2018-11-11T19:45:15.345Z,4.20
2018-11-11T19:47:44.383Z,3.05
2018-11-11T19:50:14.477Z,3.45
2018-11-11T19:52:44.679Z,4.05
2018-11-11T19:55:14.161Z,2.75
2018-11-11T19:57:43.276Z,2.10
2018-11-11T20:00:14.053Z,3.30
2018-11-11T20:02:44.058Z,3.58
2018-11-11T20:05:13.662Z,2.92
2018-11-11T20:07:43.632Z,3.45
2018-11-11T20:10:13.401Z,3.20
2018-11-11T20:12:42.134Z,3.70
2018-11-11T20:15:12.987Z,3.98
2018-11-11T20:17:42.026Z,3.60
2018-11-11T20:20:19.434Z,3.22
2018-11-11T20:22:48.445Z,4.22
2018-11-11T20:25:18.078Z,2.40
2018-11-11T20:27:46.959Z,3.70
2018-11-11T20:30:18.102Z,3.02
2018-11-11T20:32:46.918Z,2.42
2018-11-11T20:35:17.207Z,4.22
2018-11-11T20:37:46.010Z,3.00
2018-11-11T20:40:16.071Z,2.45
2018-11-11T20:42:45.506Z,3.27
2018-11-11T20:45:15.474Z,3.35
2018-11-11T20:47:44.863Z,2.65
2018-11-11T20:50:17.016Z,2.22
2018-11-11T20:52:46.810Z,5.47
2018-11-11T20:55:16.336Z,3.15
2018-11-11T20:57:45.075Z,2.85
2018-11-11T21:00:15.656Z,2.77
2018-11-11T21:02:44.448Z,2.27
2018-11-11T21:05:14.438Z,4.05
2018-11-11T21:07:43.234Z,2.45
2018-11-11T21:10:21.025Z,5.33
2018-11-11T21:12:49.929Z,4.50
2018-11-11T21:15:19.757Z,3.10
2018-11-11T21:17:48.873Z,3.40
2018-11-11T21:20:19.969Z,2.65
2018-11-11T21:22:48.678Z,2.05
2018-11-11T21:25:17.522Z,3.83
2018-11-11T21:27:47.127Z,2.40
2018-11-11T21:30:20.044Z,3.10
2018-11-11T21:32:48.911Z,2.35
2018-11-11T21:35:17.721Z,2.30
2018-11-11T21:37:46.529Z,2.42
2018-11-11T21:40:18.835Z,2.15
2018-11-11T21:42:48.388Z,2.20
2018-11-11T21:45:18.273Z,2.27
2018-11-11T21:47:47.235Z,2.42
2018-11-11T21:50:17.250Z,2.08
2018-11-11T21:52:54.951Z,2.00
2018-11-11T21:55:23.851Z,2.60
2018-11-11T21:57:52.626Z,2.65
2018-11-11T22:00:21.339Z,3.27
2018-11-11T22:02:50.159Z,8.68
2018-11-11T22:05:18.802Z,3.25
2018-11-11T22:07:47.498Z,3.12
2018-11-11T22:10:16.253Z,2.12
2018-11-11T22:12:44.929Z,2.62
2018-11-11T22:15:13.746Z,3.15
2018-11-11T22:17:42.473Z,2.08
2018-11-11T22:20:11.607Z,2.85
2018-11-11T22:22:41.290Z,2.62
2018-11-11T22:25:10.041Z,3.02
2018-11-11T22:27:38.825Z,3.67
2018-11-11T22:30:09.379Z,3.95
2018-11-11T22:32:38.350Z,2.25
2018-11-11T22:35:08.131Z,3.42
2018-11-11T22:37:36.824Z,1.70
2018-11-11T22:40:07.418Z,3.12
2018-11-11T22:42:36.383Z,2.08
2018-11-11T22:45:06.933Z,2.83
2018-11-11T22:47:35.636Z,3.95
2018-11-11T22:50:05.813Z,2.65
2018-11-11T22:52:34.590Z,2.27
2018-11-11T22:55:03.263Z,3.92
2018-11-11T22:57:32.062Z,2.62
2018-11-11T23:00:00.943Z,2.50
2018-11-11T23:02:29.721Z,2.72
2018-11-11T23:04:58.429Z,2.33
2018-11-11T23:07:27.278Z,2.25
2018-11-11T23:09:55.947Z,2.37
2018-11-11T23:12:24.726Z,2.60
2018-11-11T23:14:53.458Z,1.87
2018-11-11T23:17:22.224Z,1.72
2018-11-11T23:19:51.075Z,2.45
2018-11-11T23:22:19.826Z,1.65
2018-11-11T23:24:48.689Z,2.72
2018-11-11T23:27:17.447Z,3.05
2018-11-11T23:29:46.189Z,1.92
2018-11-11T23:32:14.892Z,2.65
2018-11-11T23:34:43.635Z,2.47
2018-11-11T23:37:12.508Z,1.60
2018-11-11T23:39:41.315Z,2.37
2018-11-11T23:42:09.997Z,2.55
2018-11-11T23:44:38.773Z,2.55
2018-11-11T23:47:07.499Z,2.35
2018-11-11T23:49:36.190Z,2.27
2018-11-11T23:52:05.255Z,2.52
2018-11-11T23:54:34.029Z,2.10
2018-11-11T23:57:02.743Z,3.08
2018-11-11T23:59:32.226Z,3.25
